createdAt,value
2019-01-25T00:01:08.227Z,-9.10
2019-01-25T00:02:15.038Z,-9.10
2019-01-25T00:03:20.266Z,-9.10
2019-01-25T00:04:25.348Z,-9.10
2019-01-25T00:05:31.016Z,-9.20
2019-01-25T00:06:36.298Z,-9.20
2019-01-25T00:07:41.271Z,-9.20
2019-01-25T00:08:46.845Z,-9.20
2019-01-25T00:09:58.604Z,-9.30
2019-01-25T00:11:00.408Z,-9.30
2019-01-25T00:12:06.078Z,-9.40
2019-01-25T00:13:11.117Z,-9.40
2019-01-25T00:14:16.287Z,-9.40
2019-01-25T00:15:21.624Z,-9.40
2019-01-25T00:16:26.795Z,-9.40
2019-01-25T00:17:32.090Z,-9.50
2019-01-25T00:18:37.207Z,-9.40
2019-01-25T00:19:42.178Z,-9.50
2019-01-25T00:20:47.688Z,-9.50
2019-01-25T00:21:52.941Z,-9.50
2019-01-25T00:22:58.161Z,-9.50
2019-01-25T00:24:03.359Z,-9.50
2019-01-25T00:25:08.710Z,-9.50
2019-01-25T00:26:14.109Z,-9.50
2019-01-25T00:27:19.264Z,-9.60
2019-01-25T00:28:24.253Z,-9.50
2019-01-25T00:29:29.394Z,-9.50
2019-01-25T00:30:34.960Z,-9.50
2019-01-25T00:31:39.876Z,-9.50
2019-01-25T00:32:45.130Z,-9.50
2019-01-25T00:33:50.203Z,-9.50
2019-01-25T00:34:55.108Z,-9.50
2019-01-25T00:36:00.232Z,-9.50
2019-01-25T00:37:05.283Z,-9.60
2019-01-25T00:38:10.228Z,-9.60
2019-01-25T00:39:15.625Z,-9.60
2019-01-25T00:40:21.233Z,-9.60
2019-01-25T00:41:26.170Z,-9.60
2019-01-25T00:42:31.183Z,-9.60
2019-01-25T00:43:36.450Z,-9.60
2019-01-25T00:44:41.320Z,-9.70
2019-01-25T00:45:47.730Z,-9.70
2019-01-25T00:46:52.860Z,-9.80
2019-01-25T00:48:00.368Z,-9.90
2019-01-25T00:49:06.144Z,-9.80
2019-01-25T00:50:15.279Z,-9.90
2019-01-25T00:51:20.212Z,-9.90
2019-01-25T00:52:25.191Z,-9.90
2019-01-25T00:53:30.300Z,-9.90
2019-01-25T00:54:41.090Z,-9.90
2019-01-25T00:55:48.979Z,-9.90
2019-01-25T00:56:54.542Z,-9.90
2019-01-25T00:57:59.418Z,-9.90
2019-01-25T00:59:04.610Z,-9.90
2019-01-25T01:00:16.624Z,-9.90
2019-01-25T01:01:21.552Z,-10.00
2019-01-25T01:02:26.751Z,-9.90
2019-01-25T01:03:31.806Z,-10.00
2019-01-25T01:04:38.469Z,-10.00
2019-01-25T01:05:43.557Z,-10.10
2019-01-25T01:06:48.563Z,-10.10
2019-01-25T01:07:53.628Z,-10.10
2019-01-25T01:08:58.768Z,-10.10
2019-01-25T01:10:03.587Z,-10.10
2019-01-25T01:11:08.699Z,-10.00
2019-01-25T01:12:13.859Z,-10.00
2019-01-25T01:13:19.037Z,-10.10
2019-01-25T01:14:24.527Z,-10.10
2019-01-25T01:15:29.791Z,-10.20
2019-01-25T01:16:34.715Z,-10.20
2019-01-25T01:17:39.807Z,-10.20
2019-01-25T01:18:44.877Z,-10.20
2019-01-25T01:19:50.844Z,-10.20
2019-01-25T01:20:56.021Z,-10.10
2019-01-25T01:22:00.987Z,-10.20
2019-01-25T01:23:06.122Z,-10.20
2019-01-25T01:24:11.197Z,-10.10
2019-01-25T01:25:16.444Z,-10.10
2019-01-25T01:26:21.368Z,-10.20
2019-01-25T01:27:26.512Z,-10.20
2019-01-25T01:28:31.353Z,-10.20
2019-01-25T01:29:36.270Z,-10.30
2019-01-25T01:30:41.423Z,-10.20
2019-01-25T01:31:46.369Z,-10.20
2019-01-25T01:32:51.839Z,-10.20
2019-01-25T01:33:57.110Z,-10.30
2019-01-25T01:35:02.042Z,-10.30
2019-01-25T01:36:07.270Z,-10.30
2019-01-25T01:37:12.168Z,-10.30
2019-01-25T01:38:17.428Z,-10.40
2019-01-25T01:39:22.610Z,-10.40
2019-01-25T01:40:28.070Z,-10.40
2019-01-25T01:41:32.969Z,-10.40
2019-01-25T01:42:38.111Z,-10.40
2019-01-25T01:43:43.058Z,-10.40
2019-01-25T01:44:48.201Z,-10.40
2019-01-25T01:45:53.430Z,-10.40
2019-01-25T01:46:58.373Z,-10.30
2019-01-25T01:48:04.703Z,-10.40
2019-01-25T01:49:09.859Z,-10.30
2019-01-25T01:50:18.826Z,-10.30
2019-01-25T01:51:24.057Z,-10.30
2019-01-25T01:52:30.278Z,-10.30
2019-01-25T01:53:36.696Z,-10.30
2019-01-25T01:54:43.051Z,-10.30
2019-01-25T01:55:48.435Z,-10.30
2019-01-25T01:56:53.495Z,-10.30
2019-01-25T01:57:58.434Z,-10.40
2019-01-25T01:59:03.724Z,-10.40
2019-01-25T02:00:12.564Z,-10.40
2019-01-25T02:01:17.785Z,-10.30
2019-01-25T02:02:23.021Z,-10.30
2019-01-25T02:03:28.033Z,-10.20
2019-01-25T02:04:33.098Z,-10.30
2019-01-25T02:05:38.193Z,-10.30
2019-01-25T02:06:44.336Z,-10.30
2019-01-25T02:07:49.509Z,-10.30
2019-01-25T02:08:54.439Z,-10.40
2019-01-25T02:09:59.953Z,-10.40
2019-01-25T02:11:06.201Z,-10.40
2019-01-25T02:12:11.340Z,-10.40
2019-01-25T02:13:20.052Z,-10.40
2019-01-25T02:14:25.222Z,-10.40
2019-01-25T02:15:30.418Z,-10.40
2019-01-25T02:16:35.476Z,-10.30
2019-01-25T02:17:40.490Z,-10.30
2019-01-25T02:18:45.364Z,-10.30
2019-01-25T02:19:50.418Z,-10.30
2019-01-25T02:20:56.483Z,-10.30
2019-01-25T02:22:01.643Z,-10.40
2019-01-25T02:23:06.641Z,-10.30
2019-01-25T02:24:11.693Z,-10.30
2019-01-25T02:25:17.073Z,-10.30
2019-01-25T02:26:21.959Z,-10.30
2019-01-25T02:27:27.399Z,-10.30
2019-01-25T02:28:32.421Z,-10.30
2019-01-25T02:29:37.277Z,-10.30
2019-01-25T02:30:42.272Z,-10.40
2019-01-25T02:31:47.270Z,-10.40
2019-01-25T02:32:52.380Z,-10.50
2019-01-25T02:33:57.444Z,-10.50
2019-01-25T02:35:02.423Z,-10.50
2019-01-25T02:36:07.464Z,-10.50
2019-01-25T02:37:12.497Z,-10.50
2019-01-25T02:38:17.571Z,-10.60
2019-01-25T02:39:22.491Z,-10.70
2019-01-25T02:40:27.825Z,-10.70
2019-01-25T02:41:32.951Z,-10.80
2019-01-25T02:42:37.811Z,-10.80
2019-01-25T02:43:42.811Z,-10.80
2019-01-25T02:44:47.844Z,-10.80
2019-01-25T02:45:52.743Z,-10.80
2019-01-25T02:46:57.674Z,-10.80
2019-01-25T02:48:02.687Z,-10.80
2019-01-25T02:49:07.547Z,-10.70
2019-01-25T02:50:14.884Z,-10.60
2019-01-25T02:51:19.760Z,-10.60
2019-01-25T02:52:24.701Z,-10.60
2019-01-25T02:53:29.688Z,-10.50
2019-01-25T02:54:34.601Z,-10.50
2019-01-25T02:55:40.939Z,-10.50
2019-01-25T02:56:46.044Z,-10.50
2019-01-25T02:57:50.890Z,-10.50
2019-01-25T02:58:57.351Z,-10.50
2019-01-25T03:00:02.252Z,-10.50
2019-01-25T03:01:07.485Z,-10.50
2019-01-25T03:02:12.791Z,-10.50
2019-01-25T03:03:17.689Z,-10.40
2019-01-25T03:04:22.634Z,-10.40
2019-01-25T03:05:27.733Z,-10.40
2019-01-25T03:06:32.639Z,-10.50
2019-01-25T03:07:39.917Z,-10.50
2019-01-25T03:08:46.765Z,-10.50
2019-01-25T03:09:53.615Z,-10.50
2019-01-25T03:10:59.182Z,-10.60
2019-01-25T03:12:05.766Z,-10.50
2019-01-25T03:13:10.770Z,-10.50
2019-01-25T03:14:15.609Z,-10.50
2019-01-25T03:15:25.448Z,-10.50
2019-01-25T03:16:30.410Z,-10.50
2019-01-25T03:17:36.493Z,-10.50
2019-01-25T03:18:41.551Z,-10.50
2019-01-25T03:19:46.572Z,-10.50
2019-01-25T03:20:51.613Z,-10.50
2019-01-25T03:21:59.091Z,-10.50
2019-01-25T03:23:04.055Z,-10.60
2019-01-25T03:24:09.088Z,-10.60
2019-01-25T03:25:17.019Z,-10.60
2019-01-25T03:26:21.872Z,-10.60
2019-01-25T03:27:27.060Z,-10.60
2019-01-25T03:28:31.887Z,-10.60
2019-01-25T03:29:36.934Z,-10.60
2019-01-25T03:30:43.538Z,-10.60
2019-01-25T03:31:48.655Z,-10.60
2019-01-25T03:32:53.899Z,-10.50
2019-01-25T03:33:58.804Z,-10.50
2019-01-25T03:35:03.856Z,-10.50
2019-01-25T03:36:11.189Z,-10.40
2019-01-25T03:37:16.126Z,-10.40
2019-01-25T03:38:21.150Z,-10.40
2019-01-25T03:39:26.067Z,-10.40
2019-01-25T03:40:32.104Z,-10.30
2019-01-25T03:41:36.957Z,-10.30
2019-01-25T03:42:41.895Z,-10.20
2019-01-25T03:43:48.935Z,-10.20
2019-01-25T03:44:54.017Z,-10.20
2019-01-25T03:45:59.600Z,-10.20
2019-01-25T03:47:04.771Z,-10.20
2019-01-25T03:48:10.023Z,-10.20
2019-01-25T03:49:14.856Z,-10.10
2019-01-25T03:50:22.583Z,-10.10
2019-01-25T03:51:27.473Z,-10.00
2019-01-25T03:52:32.490Z,-10.00
2019-01-25T03:53:37.616Z,-10.00
2019-01-25T03:54:44.804Z,-9.90
2019-01-25T03:55:49.824Z,-9.80
2019-01-25T03:56:54.733Z,-9.70
2019-01-25T03:57:59.751Z,-9.50
2019-01-25T03:59:04.964Z,-9.50
2019-01-25T04:00:13.485Z,-9.50
2019-01-25T04:01:18.389Z,-9.40
2019-01-25T04:02:23.291Z,-9.30
2019-01-25T04:03:28.301Z,-9.20
2019-01-25T04:04:33.307Z,-9.20
2019-01-25T04:05:39.418Z,-9.10
2019-01-25T04:06:44.439Z,-9.10
2019-01-25T04:07:49.854Z,-9.10
2019-01-25T04:08:54.762Z,-9.10
2019-01-25T04:09:59.811Z,-9.10
2019-01-25T04:11:04.986Z,-9.10
2019-01-25T04:12:10.042Z,-9.10
2019-01-25T04:13:15.060Z,-9.00
2019-01-25T04:14:20.083Z,-9.00
2019-01-25T04:15:27.114Z,-9.10
2019-01-25T04:16:32.229Z,-9.10
2019-01-25T04:17:37.090Z,-9.10
2019-01-25T04:18:42.110Z,-9.10
2019-01-25T04:19:47.150Z,-9.20
2019-01-25T04:20:52.023Z,-9.20
2019-01-25T04:21:57.121Z,-9.10
2019-01-25T04:23:02.319Z,-9.00
2019-01-25T04:24:07.457Z,-9.00
2019-01-25T04:25:15.019Z,-9.00
2019-01-25T04:26:19.922Z,-8.90
2019-01-25T04:27:24.935Z,-8.90
2019-01-25T04:28:29.894Z,-9.00
2019-01-25T04:29:34.765Z,-8.90
2019-01-25T04:30:39.698Z,-8.90
2019-01-25T04:31:44.780Z,-8.90
2019-01-25T04:32:49.901Z,-8.90
2019-01-25T04:33:55.010Z,-8.80
2019-01-25T04:34:59.968Z,-8.80
2019-01-25T04:36:07.618Z,-8.80
2019-01-25T04:37:12.696Z,-8.80
2019-01-25T04:38:17.628Z,-8.80
2019-01-25T04:39:22.527Z,-8.70
2019-01-25T04:40:27.406Z,-8.70
2019-01-25T04:41:32.277Z,-8.70
2019-01-25T04:42:37.355Z,-8.70
2019-01-25T04:43:42.229Z,-8.60
2019-01-25T04:44:47.052Z,-8.60
2019-01-25T04:45:51.923Z,-8.60
2019-01-25T04:46:56.948Z,-8.60
2019-01-25T04:48:01.764Z,-8.60
2019-01-25T04:49:06.651Z,-8.60
2019-01-25T04:50:19.167Z,-8.60
2019-01-25T04:51:24.048Z,-8.60
2019-01-25T04:52:29.419Z,-8.60
2019-01-25T04:53:36.927Z,-8.60
2019-01-25T04:54:41.805Z,-8.60
2019-01-25T04:55:46.591Z,-8.60
2019-01-25T04:56:51.435Z,-8.50
2019-01-25T04:58:01.373Z,-8.50
2019-01-25T04:59:06.425Z,-8.50
2019-01-25T05:00:13.586Z,-8.50
2019-01-25T05:01:20.425Z,-8.40
2019-01-25T05:02:25.619Z,-8.40
2019-01-25T05:03:30.471Z,-8.40
2019-01-25T05:04:37.084Z,-8.40
2019-01-25T05:05:41.794Z,-8.40
2019-01-25T05:06:46.604Z,-8.40
2019-01-25T05:07:51.442Z,-8.30
2019-01-25T05:08:56.205Z,-8.30
2019-01-25T05:10:01.390Z,-8.30
2019-01-25T05:11:19.952Z,-8.30
2019-01-25T05:12:24.496Z,-8.30
2019-01-25T05:13:29.578Z,-8.30
2019-01-25T05:14:36.123Z,-8.20
2019-01-25T05:15:41.320Z,-8.30
2019-01-25T05:16:46.315Z,-8.40
2019-01-25T05:17:55.093Z,-8.40
2019-01-25T05:18:59.924Z,-8.30
2019-01-25T05:20:06.043Z,-8.30
2019-01-25T05:21:14.136Z,-8.30
2019-01-25T05:22:19.134Z,-8.30
2019-01-25T05:23:24.083Z,-8.30
2019-01-25T05:24:29.226Z,-8.30
2019-01-25T05:25:34.431Z,-8.30
2019-01-25T05:26:39.561Z,-8.30
2019-01-25T05:27:44.516Z,-8.30
2019-01-25T05:28:49.543Z,-8.30
2019-01-25T05:29:56.095Z,-8.30
2019-01-25T05:31:07.607Z,-8.30
2019-01-25T05:32:12.599Z,-8.30
2019-01-25T05:33:17.562Z,-8.20
2019-01-25T05:34:22.608Z,-8.20
2019-01-25T05:35:31.919Z,-8.20
2019-01-25T05:36:36.896Z,-8.30
2019-01-25T05:37:41.771Z,-8.30
2019-01-25T05:38:49.459Z,-8.30
2019-01-25T05:39:54.384Z,-8.30
2019-01-25T05:40:59.409Z,-8.40
2019-01-25T05:42:04.756Z,-8.40
2019-01-25T05:43:09.718Z,-8.40
2019-01-25T05:44:14.727Z,-8.40
2019-01-25T05:45:20.824Z,-8.40
2019-01-25T05:46:25.689Z,-8.40
2019-01-25T05:47:30.582Z,-8.40
2019-01-25T05:48:35.649Z,-8.40
2019-01-25T05:49:40.847Z,-8.40
2019-01-25T05:50:45.894Z,-8.40
2019-01-25T05:51:50.810Z,-8.40
2019-01-25T05:52:55.754Z,-8.40
2019-01-25T05:54:00.920Z,-8.40
2019-01-25T05:55:08.326Z,-8.30
2019-01-25T05:56:13.513Z,-8.30
2019-01-25T05:57:19.014Z,-8.30
2019-01-25T05:58:24.668Z,-8.30
2019-01-25T05:59:29.808Z,-8.30
2019-01-25T06:00:38.971Z,-8.20
2019-01-25T06:01:47.159Z,-8.20
2019-01-25T06:02:52.164Z,-8.10
2019-01-25T06:03:57.928Z,-8.10
2019-01-25T06:05:03.481Z,-8.10
2019-01-25T06:06:09.039Z,-8.10
2019-01-25T06:07:14.217Z,-8.20
2019-01-25T06:08:31.470Z,-8.20
2019-01-25T06:09:36.743Z,-8.20
2019-01-25T06:10:41.813Z,-8.20
2019-01-25T06:11:47.113Z,-8.10
2019-01-25T06:12:55.779Z,-8.10
2019-01-25T06:14:01.443Z,-8.10
2019-01-25T06:15:07.078Z,-8.10
2019-01-25T06:16:12.024Z,-8.10
2019-01-25T06:17:17.643Z,-8.10
2019-01-25T06:18:22.599Z,-8.10
2019-01-25T06:19:28.176Z,-8.00
2019-01-25T06:20:33.917Z,-7.90
2019-01-25T06:21:42.038Z,-7.80
2019-01-25T06:22:46.974Z,-7.80
2019-01-25T06:23:55.333Z,-7.80
2019-01-25T06:25:00.381Z,-7.80
2019-01-25T06:26:06.923Z,-7.70
2019-01-25T06:27:12.179Z,-7.70
2019-01-25T06:28:17.183Z,-7.80
2019-01-25T06:29:22.314Z,-7.80
2019-01-25T06:30:27.412Z,-7.80
2019-01-25T06:31:32.520Z,-7.80
2019-01-25T06:32:38.723Z,-7.90
2019-01-25T06:33:44.329Z,-7.90
2019-01-25T06:34:49.707Z,-7.90
2019-01-25T06:35:55.087Z,-7.90
2019-01-25T06:37:00.411Z,-7.90
2019-01-25T06:38:05.840Z,-7.80
2019-01-25T06:39:13.404Z,-7.80
2019-01-25T06:40:18.405Z,-7.80
2019-01-25T06:41:25.044Z,-7.90
2019-01-25T06:42:30.370Z,-8.00
2019-01-25T06:43:35.250Z,-8.00
2019-01-25T06:44:40.659Z,-8.00
2019-01-25T06:45:46.135Z,-8.00
2019-01-25T06:46:51.924Z,-7.90
2019-01-25T06:47:57.029Z,-8.00
2019-01-25T06:49:04.401Z,-8.00
2019-01-25T06:50:10.719Z,-8.00
2019-01-25T06:51:16.236Z,-8.00
2019-01-25T06:52:21.954Z,-8.00
2019-01-25T06:53:27.586Z,-8.00
2019-01-25T06:54:32.593Z,-7.90
2019-01-25T06:55:37.830Z,-7.90
2019-01-25T06:56:43.134Z,-7.90
2019-01-25T06:57:54.950Z,-7.90
2019-01-25T06:59:21.398Z,-7.90
2019-01-25T07:00:28.856Z,-8.00
2019-01-25T07:01:50.794Z,-8.00
2019-01-25T07:02:56.526Z,-8.00
2019-01-25T07:04:03.344Z,-8.00
2019-01-25T07:05:10.212Z,-8.00
2019-01-25T07:06:16.452Z,-7.90
2019-01-25T07:07:31.824Z,-7.90
2019-01-25T07:08:37.133Z,-7.80
2019-01-25T07:09:43.467Z,-7.80
2019-01-25T07:10:52.081Z,-7.80
2019-01-25T07:11:59.255Z,-7.80
2019-01-25T07:13:04.991Z,-7.80
2019-01-25T07:14:10.757Z,-7.70
2019-01-25T07:15:19.068Z,-7.70
2019-01-25T07:16:24.879Z,-7.70
2019-01-25T07:17:30.598Z,-7.80
2019-01-25T07:18:37.010Z,-7.80
2019-01-25T07:19:42.783Z,-7.70
2019-01-25T07:20:48.138Z,-7.70
2019-01-25T07:21:53.281Z,-7.60
2019-01-25T07:22:58.365Z,-7.60
2019-01-25T07:24:03.575Z,-7.60
2019-01-25T07:25:11.031Z,-7.60
2019-01-25T07:26:16.077Z,-7.50
2019-01-25T07:27:21.356Z,-7.50
2019-01-25T07:28:26.477Z,-7.50
2019-01-25T07:29:32.135Z,-7.50
2019-01-25T07:30:37.833Z,-7.50
2019-01-25T07:31:43.430Z,-7.40
2019-01-25T07:32:49.340Z,-7.40
2019-01-25T07:33:54.524Z,-7.40
2019-01-25T07:35:00.491Z,-7.40
2019-01-25T07:36:05.942Z,-7.40
2019-01-25T07:37:11.521Z,-7.40
2019-01-25T07:38:17.145Z,-7.30
2019-01-25T07:39:26.529Z,-7.30
2019-01-25T07:40:35.814Z,-7.30
2019-01-25T07:41:41.219Z,-7.20
2019-01-25T07:42:47.008Z,-7.00
2019-01-25T07:43:52.720Z,-6.90
2019-01-25T07:44:58.269Z,-6.90
2019-01-25T07:46:05.699Z,-6.90
2019-01-25T07:47:11.421Z,-6.90
2019-01-25T07:48:18.136Z,-6.90
2019-01-25T07:49:23.489Z,-6.90
2019-01-25T07:50:28.707Z,-6.90
2019-01-25T07:51:34.366Z,-6.90
2019-01-25T07:52:40.264Z,-6.80
2019-01-25T07:53:45.564Z,-6.70
2019-01-25T07:54:50.757Z,-6.80
2019-01-25T07:55:56.294Z,-6.70
2019-01-25T07:57:02.064Z,-6.70
2019-01-25T07:58:07.649Z,-6.70
2019-01-25T07:59:13.398Z,-6.70
2019-01-25T08:00:20.344Z,-6.60
2019-01-25T08:01:28.174Z,-6.50
2019-01-25T08:02:37.799Z,-6.50
2019-01-25T08:03:49.691Z,-6.30
2019-01-25T08:04:58.056Z,-6.20
2019-01-25T08:06:03.210Z,-6.20
2019-01-25T08:07:08.211Z,-6.10
2019-01-25T08:08:15.324Z,-6.10
2019-01-25T08:09:20.425Z,-6.10
2019-01-25T08:10:25.572Z,-6.00
2019-01-25T08:11:30.900Z,-6.00
2019-01-25T08:12:36.333Z,-5.90
2019-01-25T08:13:42.284Z,-5.90
2019-01-25T08:14:48.194Z,-6.00
2019-01-25T08:15:53.461Z,-6.00
2019-01-25T08:16:58.881Z,-5.90
2019-01-25T08:18:04.644Z,-5.90
2019-01-25T08:19:10.454Z,-5.90
2019-01-25T08:20:16.083Z,-6.00
2019-01-25T08:21:21.134Z,-6.00
2019-01-25T08:22:26.765Z,-5.90
2019-01-25T08:23:32.300Z,-6.00
2019-01-25T08:24:39.208Z,-6.00
2019-01-25T08:25:44.677Z,-5.90
2019-01-25T08:26:50.474Z,-5.90
2019-01-25T08:27:56.097Z,-5.90
2019-01-25T08:29:01.725Z,-5.80
2019-01-25T08:30:11.165Z,-5.80
2019-01-25T08:31:17.146Z,-5.80
2019-01-25T08:32:24.106Z,-5.80
2019-01-25T08:33:29.805Z,-5.90
2019-01-25T08:34:36.379Z,-5.80
2019-01-25T08:35:41.977Z,-5.90
2019-01-25T08:36:48.345Z,-5.90
2019-01-25T08:37:54.015Z,-5.80
2019-01-25T08:39:00.913Z,-5.80
2019-01-25T08:40:07.149Z,-5.90
2019-01-25T08:41:12.541Z,-5.90
2019-01-25T08:42:18.682Z,-5.80
2019-01-25T08:43:24.533Z,-5.70
2019-01-25T08:44:30.219Z,-5.80
2019-01-25T08:45:35.459Z,-5.80
2019-01-25T08:46:41.152Z,-5.80
2019-01-25T08:47:47.176Z,-5.70
2019-01-25T08:48:52.940Z,-5.70
2019-01-25T08:49:58.346Z,-5.70
2019-01-25T08:51:04.338Z,-5.70
2019-01-25T08:52:10.757Z,-5.70
2019-01-25T08:53:16.370Z,-5.70
2019-01-25T08:54:22.373Z,-5.60
2019-01-25T08:55:28.924Z,-5.60
2019-01-25T08:56:34.226Z,-5.60
2019-01-25T08:57:39.751Z,-5.50
2019-01-25T08:58:49.324Z,-5.60
2019-01-25T08:59:55.680Z,-5.60
2019-01-25T09:01:00.874Z,-5.60
2019-01-25T09:02:06.501Z,-5.60
2019-01-25T09:03:12.740Z,-5.60
2019-01-25T09:04:19.041Z,-5.60
2019-01-25T09:05:24.603Z,-5.50
2019-01-25T09:06:29.779Z,-5.60
2019-01-25T09:07:34.825Z,-5.60
2019-01-25T09:08:40.725Z,-5.50
2019-01-25T09:09:46.553Z,-5.50
2019-01-25T09:10:52.093Z,-5.40
2019-01-25T09:11:57.571Z,-5.30
2019-01-25T09:13:03.152Z,-5.30
2019-01-25T09:14:08.714Z,-5.40
2019-01-25T09:15:17.940Z,-5.30
2019-01-25T09:16:23.753Z,-5.40
2019-01-25T09:17:28.881Z,-5.30
2019-01-25T09:18:33.974Z,-5.30
2019-01-25T09:19:39.025Z,-5.30
2019-01-25T09:20:44.796Z,-5.40
2019-01-25T09:21:49.875Z,-5.40
2019-01-25T09:22:58.604Z,-5.40
2019-01-25T09:24:04.068Z,-5.40
2019-01-25T09:25:10.179Z,-5.40
2019-01-25T09:26:15.828Z,-5.50
2019-01-25T09:27:20.872Z,-5.50
2019-01-25T09:28:26.059Z,-5.50
2019-01-25T09:29:31.736Z,-5.50
2019-01-25T09:30:36.852Z,-5.50
2019-01-25T09:31:42.613Z,-5.50
2019-01-25T09:32:48.132Z,-5.60
2019-01-25T09:33:53.272Z,-5.50
2019-01-25T09:35:00.655Z,-5.60
2019-01-25T09:36:07.132Z,-5.60
2019-01-25T09:37:12.798Z,-5.50
2019-01-25T09:38:17.758Z,-5.50
2019-01-25T09:39:22.869Z,-5.40
2019-01-25T09:40:29.035Z,-5.40
2019-01-25T09:41:33.967Z,-5.40
2019-01-25T09:42:39.537Z,-5.40
2019-01-25T09:43:44.978Z,-5.30
2019-01-25T09:44:50.801Z,-5.30
2019-01-25T09:45:55.944Z,-5.30
2019-01-25T09:47:00.929Z,-5.40
2019-01-25T09:48:06.218Z,-5.40
2019-01-25T09:49:12.103Z,-5.40
2019-01-25T09:50:18.707Z,-5.30
2019-01-25T09:51:24.317Z,-5.30
2019-01-25T09:52:29.541Z,-5.40
2019-01-25T09:53:36.578Z,-5.40
2019-01-25T09:54:42.068Z,-5.40
2019-01-25T09:55:47.439Z,-5.40
2019-01-25T09:56:53.173Z,-5.40
2019-01-25T09:57:59.510Z,-5.40
2019-01-25T09:59:05.346Z,-5.40
2019-01-25T10:00:23.458Z,-5.40
2019-01-25T10:01:28.884Z,-5.40
2019-01-25T10:02:34.049Z,-5.40
2019-01-25T10:03:39.299Z,-5.40
2019-01-25T10:04:44.413Z,-5.40
2019-01-25T10:05:50.213Z,-5.30
2019-01-25T10:06:55.608Z,-5.20
2019-01-25T10:08:01.178Z,-5.20
2019-01-25T10:09:09.693Z,-5.20
2019-01-25T10:10:15.348Z,-5.20
2019-01-25T10:11:21.429Z,-5.20
2019-01-25T10:12:27.026Z,-5.20
2019-01-25T10:13:32.862Z,-5.20
2019-01-25T10:14:38.441Z,-5.20
2019-01-25T10:15:44.270Z,-5.20
2019-01-25T10:16:49.847Z,-5.10
2019-01-25T10:17:55.819Z,-5.00
2019-01-25T10:19:01.028Z,-4.90
2019-01-25T10:20:07.656Z,-4.80
2019-01-25T10:21:12.743Z,-4.80
2019-01-25T10:22:17.914Z,-4.80
2019-01-25T10:23:23.282Z,-4.70
2019-01-25T10:24:28.415Z,-4.70
2019-01-25T10:25:33.959Z,-4.60
2019-01-25T10:26:39.653Z,-4.60
2019-01-25T10:27:47.080Z,-4.50
2019-01-25T10:28:53.084Z,-4.40
2019-01-25T10:29:59.014Z,-4.50
2019-01-25T10:31:04.857Z,-4.40
2019-01-25T10:32:10.040Z,-4.30
2019-01-25T10:33:15.815Z,-4.30
2019-01-25T10:34:20.927Z,-4.30
2019-01-25T10:35:25.984Z,-4.30
2019-01-25T10:36:32.143Z,-4.20
2019-01-25T10:37:37.067Z,-4.10
2019-01-25T10:38:42.174Z,-4.00
2019-01-25T10:39:47.336Z,-3.90
2019-01-25T10:40:52.434Z,-3.90
2019-01-25T10:41:57.864Z,-3.80
2019-01-25T10:43:02.893Z,-3.80
2019-01-25T10:44:09.709Z,-3.70
2019-01-25T10:45:18.915Z,-3.80
2019-01-25T10:46:23.833Z,-3.70
2019-01-25T10:47:29.483Z,-3.60
2019-01-25T10:48:37.923Z,-3.50
2019-01-25T10:49:43.727Z,-3.40
2019-01-25T10:50:49.000Z,-3.40
2019-01-25T10:51:54.435Z,-3.40
2019-01-25T10:52:59.681Z,-3.50
2019-01-25T10:54:06.519Z,-3.80
2019-01-25T10:55:11.949Z,-3.90
2019-01-25T10:56:17.364Z,-3.90
2019-01-25T10:57:22.544Z,-3.90
2019-01-25T10:58:27.524Z,-3.90
2019-01-25T10:59:34.794Z,-3.80
2019-01-25T11:00:39.925Z,-3.80
2019-01-25T11:01:45.174Z,-3.80
2019-01-25T11:02:57.688Z,-3.80
2019-01-25T11:03:56.843Z,-3.70
2019-01-25T11:05:02.008Z,-3.70
2019-01-25T11:06:07.287Z,-3.70
2019-01-25T11:07:12.418Z,-3.80
2019-01-25T11:08:17.449Z,-3.70
2019-01-25T11:09:22.441Z,-3.60
2019-01-25T11:10:27.661Z,-3.50
2019-01-25T11:11:32.648Z,-3.40
2019-01-25T11:12:38.088Z,-3.40
2019-01-25T11:13:43.498Z,-3.30
2019-01-25T11:14:49.606Z,-3.30
2019-01-25T11:15:54.608Z,-3.30
2019-01-25T11:16:59.569Z,-3.40
2019-01-25T11:18:04.907Z,-3.50
2019-01-25T11:19:10.159Z,-3.40
2019-01-25T11:20:17.732Z,-3.50
2019-01-25T11:21:22.748Z,-3.60
2019-01-25T11:22:27.739Z,-3.70
2019-01-25T11:23:32.556Z,-3.70
2019-01-25T11:24:37.415Z,-3.80
2019-01-25T11:25:42.843Z,-3.90
2019-01-25T11:26:47.757Z,-3.90
2019-01-25T11:27:52.832Z,-3.90
2019-01-25T11:28:57.791Z,-3.90
2019-01-25T11:30:02.922Z,-4.00
2019-01-25T11:31:08.360Z,-4.10
2019-01-25T11:32:13.518Z,-4.20
2019-01-25T11:33:19.076Z,-4.30
2019-01-25T11:34:24.213Z,-4.30
2019-01-25T11:35:29.858Z,-4.20
2019-01-25T11:36:35.190Z,-4.30
2019-01-25T11:37:40.112Z,-4.40
2019-01-25T11:38:45.180Z,-4.40
2019-01-25T11:39:50.325Z,-4.40
2019-01-25T11:40:55.633Z,-4.40
2019-01-25T11:42:00.720Z,-4.50
2019-01-25T11:43:08.946Z,-4.50
2019-01-25T11:44:12.934Z,-4.50
2019-01-25T11:45:18.275Z,-4.50
2019-01-25T11:46:23.205Z,-4.40
2019-01-25T11:47:28.316Z,-4.30
2019-01-25T11:48:33.446Z,-4.30
2019-01-25T11:49:38.682Z,-4.30
2019-01-25T11:50:44.348Z,-4.30
2019-01-25T11:51:49.669Z,-4.20
2019-01-25T11:52:55.100Z,-4.20
2019-01-25T11:54:00.114Z,-4.30
2019-01-25T11:55:05.868Z,-4.40
2019-01-25T11:56:11.628Z,-4.40
2019-01-25T11:57:17.458Z,-4.40
2019-01-25T11:58:22.585Z,-4.30
2019-01-25T11:59:27.492Z,-4.30
2019-01-25T12:00:33.708Z,-4.20
2019-01-25T12:01:39.254Z,-4.10
2019-01-25T12:02:44.844Z,-4.10
2019-01-25T12:03:50.036Z,-4.10
2019-01-25T12:04:55.025Z,-4.00
2019-01-25T12:06:00.320Z,-4.00
2019-01-25T12:07:05.477Z,-4.00
2019-01-25T12:08:11.299Z,-4.00
2019-01-25T12:09:16.666Z,-4.10
2019-01-25T12:10:24.793Z,-4.10
2019-01-25T12:11:30.028Z,-4.10
2019-01-25T12:12:35.851Z,-4.20
2019-01-25T12:13:41.396Z,-4.10
2019-01-25T12:14:47.019Z,-4.10
2019-01-25T12:15:52.230Z,-4.00
2019-01-25T12:16:57.304Z,-4.00
2019-01-25T12:18:02.395Z,-4.00
2019-01-25T12:19:08.603Z,-3.90
2019-01-25T12:20:26.618Z,-3.90
2019-01-25T12:21:31.724Z,-3.90
2019-01-25T12:22:37.003Z,-3.90
2019-01-25T12:23:42.945Z,-4.00
2019-01-25T12:24:48.225Z,-4.00
2019-01-25T12:25:53.327Z,-3.90
2019-01-25T12:26:59.163Z,-3.90
2019-01-25T12:28:05.473Z,-3.80
2019-01-25T12:29:10.723Z,-3.80
2019-01-25T12:30:28.936Z,-3.80
2019-01-25T12:31:34.740Z,-4.00
2019-01-25T12:32:40.424Z,-4.00
2019-01-25T12:33:45.569Z,-3.80
2019-01-25T12:34:51.005Z,-3.80
2019-01-25T12:35:56.663Z,-3.90
2019-01-25T12:37:04.696Z,-3.90
2019-01-25T12:38:10.021Z,-3.90
2019-01-25T12:39:15.896Z,-3.80
2019-01-25T12:40:21.124Z,-3.70
2019-01-25T12:41:27.369Z,-3.70
2019-01-25T12:42:33.242Z,-3.60
2019-01-25T12:43:39.398Z,-3.50
2019-01-25T12:44:45.073Z,-3.60
2019-01-25T12:45:50.467Z,-3.60
2019-01-25T12:46:55.771Z,-3.70
2019-01-25T12:48:04.559Z,-3.70
2019-01-25T12:49:12.959Z,-3.70
2019-01-25T12:50:43.555Z,-3.70
2019-01-25T12:51:53.603Z,-3.70
2019-01-25T12:52:59.779Z,-3.80
2019-01-25T12:54:05.104Z,-3.90
2019-01-25T12:55:10.611Z,-3.90
2019-01-25T12:56:15.825Z,-3.90
2019-01-25T12:57:20.828Z,-3.90
2019-01-25T12:58:26.536Z,-4.00
2019-01-25T12:59:32.809Z,-4.00
2019-01-25T13:00:41.461Z,-4.10
2019-01-25T13:01:50.089Z,-4.10
2019-01-25T13:02:57.311Z,-4.10
2019-01-25T13:04:03.071Z,-4.00
2019-01-25T13:05:10.533Z,-4.00
2019-01-25T13:06:16.011Z,-4.00
2019-01-25T13:07:22.540Z,-4.00
2019-01-25T13:08:28.371Z,-4.00
2019-01-25T13:09:33.293Z,-4.10
2019-01-25T13:10:38.545Z,-4.00
2019-01-25T13:11:45.261Z,-4.00
2019-01-25T13:12:51.062Z,-4.00
2019-01-25T13:13:57.003Z,-4.10
2019-01-25T13:15:05.960Z,-4.10
2019-01-25T13:16:11.182Z,-4.00
2019-01-25T13:17:18.949Z,-4.00
2019-01-25T13:18:24.160Z,-3.90
2019-01-25T13:19:29.439Z,-3.80
2019-01-25T13:20:39.556Z,-3.80
2019-01-25T13:21:43.770Z,-3.90
2019-01-25T13:22:48.901Z,-4.00
2019-01-25T13:23:54.495Z,-4.00
2019-01-25T13:24:59.582Z,-4.00
2019-01-25T13:26:05.283Z,-4.00
2019-01-25T13:27:11.103Z,-4.10
2019-01-25T13:28:16.313Z,-4.10
2019-01-25T13:29:26.067Z,-4.20
2019-01-25T13:30:30.708Z,-4.30
2019-01-25T13:31:36.053Z,-4.30
2019-01-25T13:32:42.770Z,-4.30
2019-01-25T13:33:48.134Z,-4.30
2019-01-25T13:34:53.343Z,-4.30
2019-01-25T13:35:58.567Z,-4.30
2019-01-25T13:37:03.851Z,-4.30
2019-01-25T13:38:09.865Z,-4.30
2019-01-25T13:39:15.061Z,-4.20
2019-01-25T13:40:21.516Z,-4.20
2019-01-25T13:41:27.871Z,-4.20
2019-01-25T13:42:35.154Z,-4.30
2019-01-25T13:43:40.752Z,-4.30
2019-01-25T13:44:47.256Z,-4.30
2019-01-25T13:45:52.442Z,-4.30
2019-01-25T13:46:58.038Z,-4.30
2019-01-25T13:48:03.814Z,-4.40
2019-01-25T13:49:09.073Z,-4.40
2019-01-25T13:50:17.075Z,-4.40
2019-01-25T13:51:22.181Z,-4.40
2019-01-25T13:52:27.661Z,-4.40
2019-01-25T13:53:32.745Z,-4.40
2019-01-25T13:54:37.993Z,-4.40
2019-01-25T13:55:42.999Z,-4.40
2019-01-25T13:56:48.902Z,-4.50
2019-01-25T13:57:54.687Z,-4.40
2019-01-25T13:59:00.707Z,-4.40
2019-01-25T14:00:09.547Z,-4.40
2019-01-25T14:01:15.312Z,-4.50
2019-01-25T14:02:21.004Z,-4.60
2019-01-25T14:03:26.203Z,-4.60